sensor_id;sensor_type;location;lat;lon;timestamp;temperature;humidity
19878;DHT22;10101;52.204;9.910;2023-11-19T00:02:19;6.70;99.90
19878;DHT22;10101;52.204;9.910;2023-11-19T00:04:48;6.80;99.90
19878;DHT22;10101;52.204;9.910;2023-11-19T00:07:15;6.80;99.90
19878;DHT22;10101;52.204;9.910;2023-11-19T00:09:42;6.80;99.90
19878;DHT22;10101;52.204;9.910;2023-11-19T00:12:09;6.80;99.90
19878;DHT22;10101;52.204;9.910;2023-11-19T00:14:35;6.80;99.90
19878;DHT22;10101;52.204;9.910;2023-11-19T00:17:02;6.80;99.90
19878;DHT22;10101;52.204;9.910;2023-11-19T00:19:30;6.90;99.90
19878;DHT22;10101;52.204;9.910;2023-11-19T00:21:58;6.90;99.90
19878;DHT22;10101;52.204;9.910;2023-11-19T00:24:28;6.90;99.90
19878;DHT22;10101;52.204;9.910;2023-11-19T00:26:55;6.80;99.90
19878;DHT22;10101;52.204;9.910;2023-11-19T00:29:22;6.90;99.90
19878;DHT22;10101;52.204;9.910;2023-11-19T00:31:48;6.90;99.90
19878;DHT22;10101;52.204;9.910;2023-11-19T00:34:15;6.90;99.90
19878;DHT22;10101;52.204;9.910;2023-11-19T00:36:42;6.90;99.90
19878;DHT22;10101;52.204;9.910;2023-11-19T00:39:11;6.90;99.90
19878;DHT22;10101;52.204;9.910;2023-11-19T00:41:40;6.90;99.90
19878;DHT22;10101;52.204;9.910;2023-11-19T00:44:07;6.90;99.90
19878;DHT22;10101;52.204;9.910;2023-11-19T00:46:34;6.90;99.90
19878;DHT22;10101;52.204;9.910;2023-11-19T00:49:00;6.90;99.90
19878;DHT22;10101;52.204;9.910;2023-11-19T00:51:27;6.90;99.90
19878;DHT22;10101;52.204;9.910;2023-11-19T00:53:56;6.80;99.90
19878;DHT22;10101;52.204;9.910;2023-11-19T00:56:25;6.80;99.90
19878;DHT22;10101;52.204;9.910;2023-11-19T00:58:53;6.90;99.90
19878;DHT22;10101;52.204;9.910;2023-11-19T01:01:20;6.90;99.90
19878;DHT22;10101;52.204;9.910;2023-11-19T01:03:47;7.00;99.90
19878;DHT22;10101;52.204;9.910;2023-11-19T01:06:14;7.00;99.90
19878;DHT22;10101;52.204;9.910;2023-11-19T01:08:42;7.10;99.90
19878;DHT22;10101;52.204;9.910;2023-11-19T01:11:19;7.10;99.90
19878;DHT22;10101;52.204;9.910;2023-11-19T01:13:48;7.10;99.90
19878;DHT22;10101;52.204;9.910;2023-11-19T01:16:15;7.10;99.90
19878;DHT22;10101;52.204;9.910;2023-11-19T01:18:42;7.00;99.90
19878;DHT22;10101;52.204;9.910;2023-11-19T01:21:08;7.00;99.90
19878;DHT22;10101;52.204;9.910;2023-11-19T01:23:35;7.00;99.90
19878;DHT22;10101;52.204;9.910;2023-11-19T01:26:02;7.00;99.90
19878;DHT22;10101;52.204;9.910;2023-11-19T01:28:30;7.00;99.90
19878;DHT22;10101;52.204;9.910;2023-11-19T01:30:58;7.10;99.90
19878;DHT22;10101;52.204;9.910;2023-11-19T01:33:25;7.10;99.90
19878;DHT22;10101;52.204;9.910;2023-11-19T01:35:56;7.20;99.90
19878;DHT22;10101;52.204;9.910;2023-11-19T01:38:24;7.30;99.90
19878;DHT22;10101;52.204;9.910;2023-11-19T01:40:50;7.30;99.90
19878;DHT22;10101;52.204;9.910;2023-11-19T01:43:34;7.30;99.90
19878;DHT22;10101;52.204;9.910;2023-11-19T01:46:05;7.30;99.90
19878;DHT22;10101;52.204;9.910;2023-11-19T01:48:33;7.40;99.90
19878;DHT22;10101;52.204;9.910;2023-11-19T01:51:01;7.40;99.90
19878;DHT22;10101;52.204;9.910;2023-11-19T01:53:28;7.40;99.90
19878;DHT22;10101;52.204;9.910;2023-11-19T01:55:56;7.40;99.90
19878;DHT22;10101;52.204;9.910;2023-11-19T01:58:23;7.40;99.90
19878;DHT22;10101;52.204;9.910;2023-11-19T02:00:50;7.50;99.90
19878;DHT22;10101;52.204;9.910;2023-11-19T02:03:20;7.40;99.90
19878;DHT22;10101;52.204;9.910;2023-11-19T02:05:48;7.50;99.90
19878;DHT22;10101;52.204;9.910;2023-11-19T02:08:16;7.50;99.90
19878;DHT22;10101;52.204;9.910;2023-11-19T02:10:43;7.50;99.90
19878;DHT22;10101;52.204;9.910;2023-11-19T02:13:10;7.60;99.90
19878;DHT22;10101;52.204;9.910;2023-11-19T02:15:39;7.60;99.90
19878;DHT22;10101;52.204;9.910;2023-11-19T02:18:20;7.60;99.90
19878;DHT22;10101;52.204;9.910;2023-11-19T02:20:48;7.70;99.90
19878;DHT22;10101;52.204;9.910;2023-11-19T02:23:15;7.70;99.90
19878;DHT22;10101;52.204;9.910;2023-11-19T02:25:43;7.80;99.90
19878;DHT22;10101;52.204;9.910;2023-11-19T02:28:14;7.70;99.90
19878;DHT22;10101;52.204;9.910;2023-11-19T02:30:42;7.90;99.90
19878;DHT22;10101;52.204;9.910;2023-11-19T02:33:08;7.90;99.90
19878;DHT22;10101;52.204;9.910;2023-11-19T02:35:35;7.90;99.90
19878;DHT22;10101;52.204;9.910;2023-11-19T02:38:02;7.90;99.90
19878;DHT22;10101;52.204;9.910;2023-11-19T02:40:32;7.90;99.90
19878;DHT22;10101;52.204;9.910;2023-11-19T02:42:59;7.90;99.90
19878;DHT22;10101;52.204;9.910;2023-11-19T02:45:27;7.90;99.90
19878;DHT22;10101;52.204;9.910;2023-11-19T02:47:56;8.00;99.90
19878;DHT22;10101;52.204;9.910;2023-11-19T02:50:23;8.10;99.90
19878;DHT22;10101;52.204;9.910;2023-11-19T02:52:52;8.10;99.90
19878;DHT22;10101;52.204;9.910;2023-11-19T02:55:19;8.10;99.90
19878;DHT22;10101;52.204;9.910;2023-11-19T02:57:46;8.10;99.90
19878;DHT22;10101;52.204;9.910;2023-11-19T03:00:15;8.20;99.90
19878;DHT22;10101;52.204;9.910;2023-11-19T03:02:43;8.10;99.90
19878;DHT22;10101;52.204;9.910;2023-11-19T03:05:12;8.20;99.90
19878;DHT22;10101;52.204;9.910;2023-11-19T03:07:40;8.30;99.90
19878;DHT22;10101;52.204;9.910;2023-11-19T03:10:08;8.50;99.90
19878;DHT22;10101;52.204;9.910;2023-11-19T03:12:38;8.50;99.90
19878;DHT22;10101;52.204;9.910;2023-11-19T03:15:06;8.50;99.90
19878;DHT22;10101;52.204;9.910;2023-11-19T03:17:35;8.50;99.90
19878;DHT22;10101;52.204;9.910;2023-11-19T03:20:04;8.60;99.90
19878;DHT22;10101;52.204;9.910;2023-11-19T03:22:32;8.70;99.90
19878;DHT22;10101;52.204;9.910;2023-11-19T03:25:00;8.70;99.90
19878;DHT22;10101;52.204;9.910;2023-11-19T03:27:26;8.70;99.90
19878;DHT22;10101;52.204;9.910;2023-11-19T03:29:53;8.70;99.90
19878;DHT22;10101;52.204;9.910;2023-11-19T03:32:20;8.70;99.90
19878;DHT22;10101;52.204;9.910;2023-11-19T03:34:46;8.80;99.90
19878;DHT22;10101;52.204;9.910;2023-11-19T03:37:15;8.90;99.90
19878;DHT22;10101;52.204;9.910;2023-11-19T03:39:42;8.90;99.90
19878;DHT22;10101;52.204;9.910;2023-11-19T03:42:09;9.00;99.90
19878;DHT22;10101;52.204;9.910;2023-11-19T03:44:37;8.90;99.90
19878;DHT22;10101;52.204;9.910;2023-11-19T03:47:04;9.00;99.90
19878;DHT22;10101;52.204;9.910;2023-11-19T03:49:31;9.00;99.90
19878;DHT22;10101;52.204;9.910;2023-11-19T03:51:58;9.10;99.90
19878;DHT22;10101;52.204;9.910;2023-11-19T03:54:26;9.10;99.90
19878;DHT22;10101;52.204;9.910;2023-11-19T03:56:53;9.10;99.90
19878;DHT22;10101;52.204;9.910;2023-11-19T03:59:20;9.20;99.90
19878;DHT22;10101;52.204;9.910;2023-11-19T04:01:46;9.20;99.90
19878;DHT22;10101;52.204;9.910;2023-11-19T04:04:13;9.20;99.90
19878;DHT22;10101;52.204;9.910;2023-11-19T04:06:40;9.30;99.90
19878;DHT22;10101;52.204;9.910;2023-11-19T04:09:07;9.30;99.90
19878;DHT22;10101;52.204;9.910;2023-11-19T04:11:35;9.30;99.90
19878;DHT22;10101;52.204;9.910;2023-11-19T04:14:02;9.30;99.90
19878;DHT22;10101;52.204;9.910;2023-11-19T04:16:29;9.40;99.90
19878;DHT22;10101;52.204;9.910;2023-11-19T04:18:55;9.50;99.90
19878;DHT22;10101;52.204;9.910;2023-11-19T04:21:22;9.50;99.90
19878;DHT22;10101;52.204;9.910;2023-11-19T04:23:49;9.50;99.90
19878;DHT22;10101;52.204;9.910;2023-11-19T04:26:16;9.50;99.90
19878;DHT22;10101;52.204;9.910;2023-11-19T04:28:44;9.60;99.90
19878;DHT22;10101;52.204;9.910;2023-11-19T04:31:11;9.60;99.90
19878;DHT22;10101;52.204;9.910;2023-11-19T04:33:37;9.80;99.90
19878;DHT22;10101;52.204;9.910;2023-11-19T04:36:05;9.80;99.90
19878;DHT22;10101;52.204;9.910;2023-11-19T04:38:32;10.00;99.90
19878;DHT22;10101;52.204;9.910;2023-11-19T04:41:00;10.00;99.90
19878;DHT22;10101;52.204;9.910;2023-11-19T04:43:27;10.10;99.90
19878;DHT22;10101;52.204;9.910;2023-11-19T04:45:55;10.10;99.90
19878;DHT22;10101;52.204;9.910;2023-11-19T04:48:23;10.40;99.90
19878;DHT22;10101;52.204;9.910;2023-11-19T04:50:49;10.40;99.90
19878;DHT22;10101;52.204;9.910;2023-11-19T04:53:18;10.30;99.90
19878;DHT22;10101;52.204;9.910;2023-11-19T04:55:44;10.30;99.90
19878;DHT22;10101;52.204;9.910;2023-11-19T04:58:11;10.30;99.90
19878;DHT22;10101;52.204;9.910;2023-11-19T05:00:38;10.20;99.90
19878;DHT22;10101;52.204;9.910;2023-11-19T05:03:06;10.20;99.90
19878;DHT22;10101;52.204;9.910;2023-11-19T05:05:33;10.10;99.90
19878;DHT22;10101;52.204;9.910;2023-11-19T05:08:00;10.10;99.90
19878;DHT22;10101;52.204;9.910;2023-11-19T05:10:27;10.20;99.90
19878;DHT22;10101;52.204;9.910;2023-11-19T05:12:53;10.20;99.90
19878;DHT22;10101;52.204;9.910;2023-11-19T05:15:22;10.20;99.90
19878;DHT22;10101;52.204;9.910;2023-11-19T05:17:49;10.20;99.90
19878;DHT22;10101;52.204;9.910;2023-11-19T05:20:17;10.20;99.90
19878;DHT22;10101;52.204;9.910;2023-11-19T05:22:44;10.20;99.90
19878;DHT22;10101;52.204;9.910;2023-11-19T05:25:11;10.20;99.90
19878;DHT22;10101;52.204;9.910;2023-11-19T05:27:38;10.20;99.90
19878;DHT22;10101;52.204;9.910;2023-11-19T05:30:06;10.20;99.90
19878;DHT22;10101;52.204;9.910;2023-11-19T05:32:33;10.30;99.90
19878;DHT22;10101;52.204;9.910;2023-11-19T05:35:00;10.40;99.90
19878;DHT22;10101;52.204;9.910;2023-11-19T05:37:28;10.20;99.90
19878;DHT22;10101;52.204;9.910;2023-11-19T05:39:55;10.30;99.90
19878;DHT22;10101;52.204;9.910;2023-11-19T05:42:22;10.30;99.90
19878;DHT22;10101;52.204;9.910;2023-11-19T05:44:49;10.50;99.90
19878;DHT22;10101;52.204;9.910;2023-11-19T05:47:17;10.50;99.90
19878;DHT22;10101;52.204;9.910;2023-11-19T05:49:44;10.60;99.90
19878;DHT22;10101;52.204;9.910;2023-11-19T05:52:11;10.70;99.90
19878;DHT22;10101;52.204;9.910;2023-11-19T05:54:39;10.70;99.90
19878;DHT22;10101;52.204;9.910;2023-11-19T05:57:06;10.80;99.90
19878;DHT22;10101;52.204;9.910;2023-11-19T05:59:34;10.80;99.90
19878;DHT22;10101;52.204;9.910;2023-11-19T06:02:01;10.80;99.90
19878;DHT22;10101;52.204;9.910;2023-11-19T06:04:28;10.80;99.90
19878;DHT22;10101;52.204;9.910;2023-11-19T06:06:55;10.80;99.90
19878;DHT22;10101;52.204;9.910;2023-11-19T06:09:21;10.70;99.90
19878;DHT22;10101;52.204;9.910;2023-11-19T06:11:51;10.70;99.90
19878;DHT22;10101;52.204;9.910;2023-11-19T06:14:18;10.70;99.90
19878;DHT22;10101;52.204;9.910;2023-11-19T06:16:45;10.70;99.90
19878;DHT22;10101;52.204;9.910;2023-11-19T06:19:11;10.80;99.90
19878;DHT22;10101;52.204;9.910;2023-11-19T06:21:38;11.00;99.90
19878;DHT22;10101;52.204;9.910;2023-11-19T06:24:05;11.20;99.90
19878;DHT22;10101;52.204;9.910;2023-11-19T06:26:32;11.20;99.90
19878;DHT22;10101;52.204;9.910;2023-11-19T06:29:01;11.30;99.90
19878;DHT22;10101;52.204;9.910;2023-11-19T06:31:27;11.50;99.90
19878;DHT22;10101;52.204;9.910;2023-11-19T06:33:54;11.50;99.90
19878;DHT22;10101;52.204;9.910;2023-11-19T06:36:21;11.50;99.90
19878;DHT22;10101;52.204;9.910;2023-11-19T06:38:47;11.70;99.90
19878;DHT22;10101;52.204;9.910;2023-11-19T06:41:14;11.80;99.90
19878;DHT22;10101;52.204;9.910;2023-11-19T06:43:41;11.70;99.90
19878;DHT22;10101;52.204;9.910;2023-11-19T06:46:16;11.70;99.90
19878;DHT22;10101;52.204;9.910;2023-11-19T06:48:43;11.90;99.90
19878;DHT22;10101;52.204;9.910;2023-11-19T06:51:10;11.80;99.90
19878;DHT22;10101;52.204;9.910;2023-11-19T06:53:37;11.70;99.90
19878;DHT22;10101;52.204;9.910;2023-11-19T06:56:05;11.80;99.90
19878;DHT22;10101;52.204;9.910;2023-11-19T06:58:35;11.70;99.90
19878;DHT22;10101;52.204;9.910;2023-11-19T07:01:02;11.70;99.90
19878;DHT22;10101;52.204;9.910;2023-11-19T07:03:31;11.70;99.90
19878;DHT22;10101;52.204;9.910;2023-11-19T07:05:58;11.80;99.90
19878;DHT22;10101;52.204;9.910;2023-11-19T07:08:24;11.70;99.90
19878;DHT22;10101;52.204;9.910;2023-11-19T07:10:52;11.80;99.90
19878;DHT22;10101;52.204;9.910;2023-11-19T07:13:18;11.70;99.90
19878;DHT22;10101;52.204;9.910;2023-11-19T07:15:46;11.80;99.90
19878;DHT22;10101;52.204;9.910;2023-11-19T07:18:14;11.80;99.90
19878;DHT22;10101;52.204;9.910;2023-11-19T07:20:43;11.80;99.90
19878;DHT22;10101;52.204;9.910;2023-11-19T07:23:13;11.90;99.90
19878;DHT22;10101;52.204;9.910;2023-11-19T07:25:42;11.90;99.90
19878;DHT22;10101;52.204;9.910;2023-11-19T07:28:10;11.70;99.90
19878;DHT22;10101;52.204;9.910;2023-11-19T07:30:38;11.70;99.90
19878;DHT22;10101;52.204;9.910;2023-11-19T07:33:04;11.70;99.90
19878;DHT22;10101;52.204;9.910;2023-11-19T07:35:31;11.70;99.90
19878;DHT22;10101;52.204;9.910;2023-11-19T07:37:59;11.70;99.90
19878;DHT22;10101;52.204;9.910;2023-11-19T07:40:26;11.70;99.90
19878;DHT22;10101;52.204;9.910;2023-11-19T07:42:53;11.80;99.90
19878;DHT22;10101;52.204;9.910;2023-11-19T07:45:20;11.80;99.90
19878;DHT22;10101;52.204;9.910;2023-11-19T07:47:47;11.80;99.90
19878;DHT22;10101;52.204;9.910;2023-11-19T07:50:13;11.80;99.90
19878;DHT22;10101;52.204;9.910;2023-11-19T07:52:42;11.90;1.00
19878;DHT22;10101;52.204;9.910;2023-11-19T07:55:10;11.80;1.00
19878;DHT22;10101;52.204;9.910;2023-11-19T07:57:37;11.80;99.90
19878;DHT22;10101;52.204;9.910;2023-11-19T08:00:05;11.80;99.90
19878;DHT22;10101;52.204;9.910;2023-11-19T08:02:32;11.80;1.00
19878;DHT22;10101;52.204;9.910;2023-11-19T08:04:58;11.80;99.90
19878;DHT22;10101;52.204;9.910;2023-11-19T08:07:25;11.80;1.00
19878;DHT22;10101;52.204;9.910;2023-11-19T08:09:52;11.80;99.90
19878;DHT22;10101;52.204;9.910;2023-11-19T08:12:20;11.80;1.00
19878;DHT22;10101;52.204;9.910;2023-11-19T08:14:47;11.90;99.90
19878;DHT22;10101;52.204;9.910;2023-11-19T08:17:14;12.00;99.90
19878;DHT22;10101;52.204;9.910;2023-11-19T08:19:41;12.00;99.90
19878;DHT22;10101;52.204;9.910;2023-11-19T08:22:08;11.90;99.90
19878;DHT22;10101;52.204;9.910;2023-11-19T08:24:35;11.90;1.00
19878;DHT22;10101;52.204;9.910;2023-11-19T08:27:02;11.90;99.90
19878;DHT22;10101;52.204;9.910;2023-11-19T08:29:30;11.80;99.90
19878;DHT22;10101;52.204;9.910;2023-11-19T08:31:57;11.80;81.50
19878;DHT22;10101;52.204;9.910;2023-11-19T08:34:24;11.80;1.00
19878;DHT22;10101;52.204;9.910;2023-11-19T08:36:51;11.70;1.00
19878;DHT22;10101;52.204;9.910;2023-11-19T08:39:18;11.70;99.90
19878;DHT22;10101;52.204;9.910;2023-11-19T08:41:46;11.60;99.90
19878;DHT22;10101;52.204;9.910;2023-11-19T08:44:13;11.70;99.90
19878;DHT22;10101;52.204;9.910;2023-11-19T08:46:47;11.60;1.00
19878;DHT22;10101;52.204;9.910;2023-11-19T08:49:14;11.70;1.00
19878;DHT22;10101;52.204;9.910;2023-11-19T08:51:41;11.70;1.00
19878;DHT22;10101;52.204;9.910;2023-11-19T08:54:08;11.70;1.00
19878;DHT22;10101;52.204;9.910;2023-11-19T08:56:35;11.80;1.00
19878;DHT22;10101;52.204;9.910;2023-11-19T08:59:02;11.70;99.90
19878;DHT22;10101;52.204;9.910;2023-11-19T09:01:29;11.90;38.00
19878;DHT22;10101;52.204;9.910;2023-11-19T09:03:57;11.90;1.00
19878;DHT22;10101;52.204;9.910;2023-11-19T09:06:24;11.90;99.90
19878;DHT22;10101;52.204;9.910;2023-11-19T09:08:51;11.70;1.00
19878;DHT22;10101;52.204;9.910;2023-11-19T09:11:18;11.60;1.00
19878;DHT22;10101;52.204;9.910;2023-11-19T09:13:45;11.50;99.90
19878;DHT22;10101;52.204;9.910;2023-11-19T09:16:12;11.30;99.90
19878;DHT22;10101;52.204;9.910;2023-11-19T09:18:38;11.40;99.90
19878;DHT22;10101;52.204;9.910;2023-11-19T09:21:06;11.50;99.90
19878;DHT22;10101;52.204;9.910;2023-11-19T09:23:33;11.50;99.90
19878;DHT22;10101;52.204;9.910;2023-11-19T09:26:04;11.40;99.90
19878;DHT22;10101;52.204;9.910;2023-11-19T09:28:31;11.40;99.90
19878;DHT22;10101;52.204;9.910;2023-11-19T09:30:58;11.30;99.90
19878;DHT22;10101;52.204;9.910;2023-11-19T09:33:25;11.40;99.90
19878;DHT22;10101;52.204;9.910;2023-11-19T09:35:52;11.40;99.90
19878;DHT22;10101;52.204;9.910;2023-11-19T09:38:20;11.40;99.90
19878;DHT22;10101;52.204;9.910;2023-11-19T09:40:47;11.40;1.00
19878;DHT22;10101;52.204;9.910;2023-11-19T09:43:14;11.40;1.00
19878;DHT22;10101;52.204;9.910;2023-11-19T09:45:50;11.50;99.90
19878;DHT22;10101;52.204;9.910;2023-11-19T09:48:17;11.50;99.90
19878;DHT22;10101;52.204;9.910;2023-11-19T09:50:45;11.70;1.00
19878;DHT22;10101;52.204;9.910;2023-11-19T09:53:13;11.60;24.50
19878;DHT22;10101;52.204;9.910;2023-11-19T09:55:42;11.50;1.00
19878;DHT22;10101;52.204;9.910;2023-11-19T09:58:10;11.40;1.00
19878;DHT22;10101;52.204;9.910;2023-11-19T10:00:38;11.50;1.00
19878;DHT22;10101;52.204;9.910;2023-11-19T10:03:06;11.70;83.70
19878;DHT22;10101;52.204;9.910;2023-11-19T10:05:34;11.70;99.90
19878;DHT22;10101;52.204;9.910;2023-11-19T10:08:01;11.70;1.00
19878;DHT22;10101;52.204;9.910;2023-11-19T10:10:28;11.90;99.90
19878;DHT22;10101;52.204;9.910;2023-11-19T10:12:56;11.80;99.90
19878;DHT22;10101;52.204;9.910;2023-11-19T10:15:26;11.90;1.00
19878;DHT22;10101;52.204;9.910;2023-11-19T10:17:55;11.90;1.00
19878;DHT22;10101;52.204;9.910;2023-11-19T10:20:22;12.00;1.00
19878;DHT22;10101;52.204;9.910;2023-11-19T10:22:52;12.10;1.00
19878;DHT22;10101;52.204;9.910;2023-11-19T10:25:23;12.20;99.90
19878;DHT22;10101;52.204;9.910;2023-11-19T10:27:50;12.10;99.90
19878;DHT22;10101;52.204;9.910;2023-11-19T10:30:21;11.90;1.00
19878;DHT22;10101;52.204;9.910;2023-11-19T10:33:02;11.80;99.90
19878;DHT22;10101;52.204;9.910;2023-11-19T10:35:29;11.80;1.00
19878;DHT22;10101;52.204;9.910;2023-11-19T10:37:59;11.80;1.00
19878;DHT22;10101;52.204;9.910;2023-11-19T10:40:37;11.60;99.90
19878;DHT22;10101;52.204;9.910;2023-11-19T10:43:05;11.50;1.00
19878;DHT22;10101;52.204;9.910;2023-11-19T10:45:34;11.40;43.80
19878;DHT22;10101;52.204;9.910;2023-11-19T10:48:02;11.30;1.00
19878;DHT22;10101;52.204;9.910;2023-11-19T10:50:30;11.30;1.00
19878;DHT22;10101;52.204;9.910;2023-11-19T10:52:57;11.30;1.00
19878;DHT22;10101;52.204;9.910;2023-11-19T10:55:27;11.30;99.90
19878;DHT22;10101;52.204;9.910;2023-11-19T10:57:59;11.30;1.00
19878;DHT22;10101;52.204;9.910;2023-11-19T11:00:27;11.30;1.00
19878;DHT22;10101;52.204;9.910;2023-11-19T11:03:00;11.40;99.90
19878;DHT22;10101;52.204;9.910;2023-11-19T11:05:29;11.50;99.90
19878;DHT22;10101;52.204;9.910;2023-11-19T11:07:58;11.50;99.90
19878;DHT22;10101;52.204;9.910;2023-11-19T11:10:26;11.50;20.60
19878;DHT22;10101;52.204;9.910;2023-11-19T11:12:56;11.50;1.00
19878;DHT22;10101;52.204;9.910;2023-11-19T11:15:27;11.70;99.90
19878;DHT22;10101;52.204;9.910;2023-11-19T11:17:59;11.80;1.00
19878;DHT22;10101;52.204;9.910;2023-11-19T11:20:27;11.70;99.90
19878;DHT22;10101;52.204;9.910;2023-11-19T11:23:05;11.70;1.00
19878;DHT22;10101;52.204;9.910;2023-11-19T11:25:42;11.70;1.00
19878;DHT22;10101;52.204;9.910;2023-11-19T11:28:26;11.70;1.00
19878;DHT22;10101;52.204;9.910;2023-11-19T11:31:07;11.80;1.00
19878;DHT22;10101;52.204;9.910;2023-11-19T11:33:47;11.90;99.90
19878;DHT22;10101;52.204;9.910;2023-11-19T11:36:21;12.00;99.90
19878;DHT22;10101;52.204;9.910;2023-11-19T11:38:49;12.20;1.00
19878;DHT22;10101;52.204;9.910;2023-11-19T11:41:18;12.30;99.90
19878;DHT22;10101;52.204;9.910;2023-11-19T11:43:47;12.40;1.00
19878;DHT22;10101;52.204;9.910;2023-11-19T11:49:25;12.30;1.00
19878;DHT22;10101;52.204;9.910;2023-11-19T11:51:59;12.40;1.00
19878;DHT22;10101;52.204;9.910;2023-11-19T11:54:26;12.50;1.00
19878;DHT22;10101;52.204;9.910;2023-11-19T11:57:06;12.40;57.00
19878;DHT22;10101;52.204;9.910;2023-11-19T11:59:40;12.50;1.00
19878;DHT22;10101;52.204;9.910;2023-11-19T12:02:10;12.60;99.90
19878;DHT22;10101;52.204;9.910;2023-11-19T12:04:39;12.50;99.90
19878;DHT22;10101;52.204;9.910;2023-11-19T12:07:08;12.50;1.00
19878;DHT22;10101;52.204;9.910;2023-11-19T12:09:36;12.50;1.00
19878;DHT22;10101;52.204;9.910;2023-11-19T12:12:18;12.40;1.00
19878;DHT22;10101;52.204;9.910;2023-11-19T12:15:10;12.30;1.00
19878;DHT22;10101;52.204;9.910;2023-11-19T12:17:42;12.50;1.00
19878;DHT22;10101;52.204;9.910;2023-11-19T12:20:12;12.50;99.90
19878;DHT22;10101;52.204;9.910;2023-11-19T12:22:40;12.60;99.70
19878;DHT22;10101;52.204;9.910;2023-11-19T12:25:08;12.70;99.90
19878;DHT22;10101;52.204;9.910;2023-11-19T12:27:35;12.80;99.90
19878;DHT22;10101;52.204;9.910;2023-11-19T12:30:02;12.80;1.00
19878;DHT22;10101;52.204;9.910;2023-11-19T12:32:37;12.90;1.00
19878;DHT22;10101;52.204;9.910;2023-11-19T12:35:05;12.90;1.00
19878;DHT22;10101;52.204;9.910;2023-11-19T12:37:33;12.90;1.00
19878;DHT22;10101;52.204;9.910;2023-11-19T12:40:01;12.90;99.90
19878;DHT22;10101;52.204;9.910;2023-11-19T12:42:36;12.80;99.90
19878;DHT22;10101;52.204;9.910;2023-11-19T12:45:05;12.70;99.90
19878;DHT22;10101;52.204;9.910;2023-11-19T12:47:32;12.60;99.90
19878;DHT22;10101;52.204;9.910;2023-11-19T12:49:58;12.60;99.90
19878;DHT22;10101;52.204;9.910;2023-11-19T12:52:25;12.50;99.90
19878;DHT22;10101;52.204;9.910;2023-11-19T12:54:54;12.50;99.90
19878;DHT22;10101;52.204;9.910;2023-11-19T12:57:20;12.50;99.90
19878;DHT22;10101;52.204;9.910;2023-11-19T12:59:56;12.40;99.90
19878;DHT22;10101;52.204;9.910;2023-11-19T13:02:23;12.30;99.90
19878;DHT22;10101;52.204;9.910;2023-11-19T13:05:21;12.30;1.00
19878;DHT22;10101;52.204;9.910;2023-11-19T13:07:48;12.20;1.00
19878;DHT22;10101;52.204;9.910;2023-11-19T13:10:16;12.00;99.90
19878;DHT22;10101;52.204;9.910;2023-11-19T13:12:43;11.80;99.90
19878;DHT22;10101;52.204;9.910;2023-11-19T13:15:23;11.60;1.00
19878;DHT22;10101;52.204;9.910;2023-11-19T13:17:50;11.70;99.90
19878;DHT22;10101;52.204;9.910;2023-11-19T13:20:17;11.70;60.40
19878;DHT22;10101;52.204;9.910;2023-11-19T13:22:57;11.60;1.00
19878;DHT22;10101;52.204;9.910;2023-11-19T13:25:25;11.60;99.90
19878;DHT22;10101;52.204;9.910;2023-11-19T13:27:52;11.60;1.00
19878;DHT22;10101;52.204;9.910;2023-11-19T13:30:19;11.60;1.00
19878;DHT22;10101;52.204;9.910;2023-11-19T13:32:47;11.60;1.00
19878;DHT22;10101;52.204;9.910;2023-11-19T13:35:14;11.60;99.90
19878;DHT22;10101;52.204;9.910;2023-11-19T13:37:42;11.60;99.90
19878;DHT22;10101;52.204;9.910;2023-11-19T13:40:10;11.60;1.00
19878;DHT22;10101;52.204;9.910;2023-11-19T13:42:41;11.80;1.00
19878;DHT22;10101;52.204;9.910;2023-11-19T13:45:09;11.70;1.00
19878;DHT22;10101;52.204;9.910;2023-11-19T13:47:37;11.80;81.30
19878;DHT22;10101;52.204;9.910;2023-11-19T13:50:07;12.00;1.00
19878;DHT22;10101;52.204;9.910;2023-11-19T13:52:34;11.90;99.90
19878;DHT22;10101;52.204;9.910;2023-11-19T13:55:02;11.80;1.00
19878;DHT22;10101;52.204;9.910;2023-11-19T13:57:30;11.80;1.00
19878;DHT22;10101;52.204;9.910;2023-11-19T13:59:58;11.80;34.50
19878;DHT22;10101;52.204;9.910;2023-11-19T14:02:25;11.80;99.90
19878;DHT22;10101;52.204;9.910;2023-11-19T14:04:50;11.80;1.00
19878;DHT22;10101;52.204;9.910;2023-11-19T14:07:17;11.80;99.90
19878;DHT22;10101;52.204;9.910;2023-11-19T14:09:44;11.90;1.00
19878;DHT22;10101;52.204;9.910;2023-11-19T14:12:11;11.80;1.00
19878;DHT22;10101;52.204;9.910;2023-11-19T14:14:38;11.70;99.90
19878;DHT22;10101;52.204;9.910;2023-11-19T14:17:07;11.80;99.90
19878;DHT22;10101;52.204;9.910;2023-11-19T14:19:34;11.80;99.90
19878;DHT22;10101;52.204;9.910;2023-11-19T14:22:00;11.80;99.90
19878;DHT22;10101;52.204;9.910;2023-11-19T14:24:27;11.80;1.00
19878;DHT22;10101;52.204;9.910;2023-11-19T14:26:54;11.70;1.00
19878;DHT22;10101;52.204;9.910;2023-11-19T14:29:24;11.90;1.00
19878;DHT22;10101;52.204;9.910;2023-11-19T14:31:51;11.90;1.00
19878;DHT22;10101;52.204;9.910;2023-11-19T14:34:20;11.90;99.90
19878;DHT22;10101;52.204;9.910;2023-11-19T14:36:47;11.90;1.00
19878;DHT22;10101;52.204;9.910;2023-11-19T14:39:14;11.80;1.00
19878;DHT22;10101;52.204;9.910;2023-11-19T14:41:42;11.90;1.00
19878;DHT22;10101;52.204;9.910;2023-11-19T14:44:09;11.80;1.00
19878;DHT22;10101;52.204;9.910;2023-11-19T14:46:36;11.90;99.90
19878;DHT22;10101;52.204;9.910;2023-11-19T14:49:03;11.90;99.90
19878;DHT22;10101;52.204;9.910;2023-11-19T14:51:31;11.90;99.90
19878;DHT22;10101;52.204;9.910;2023-11-19T14:53:58;11.70;99.90
19878;DHT22;10101;52.204;9.910;2023-11-19T14:56:25;11.70;1.00
19878;DHT22;10101;52.204;9.910;2023-11-19T14:58:51;11.70;1.00
19878;DHT22;10101;52.204;9.910;2023-11-19T15:01:18;11.60;99.90
19878;DHT22;10101;52.204;9.910;2023-11-19T15:03:45;11.50;99.90
19878;DHT22;10101;52.204;9.910;2023-11-19T15:06:12;11.80;1.00
19878;DHT22;10101;52.204;9.910;2023-11-19T15:08:40;11.70;1.00
19878;DHT22;10101;52.204;9.910;2023-11-19T15:11:08;11.70;99.90
19878;DHT22;10101;52.204;9.910;2023-11-19T15:13:37;11.70;99.90
19878;DHT22;10101;52.204;9.910;2023-11-19T15:16:07;11.80;91.10
19878;DHT22;10101;52.204;9.910;2023-11-19T15:18:36;11.70;1.00
19878;DHT22;10101;52.204;9.910;2023-11-19T15:21:03;11.70;1.00
19878;DHT22;10101;52.204;9.910;2023-11-19T15:23:30;11.60;1.00
19878;DHT22;10101;52.204;9.910;2023-11-19T15:25:58;11.70;1.00
19878;DHT22;10101;52.204;9.910;2023-11-19T15:28:25;11.80;1.00
19878;DHT22;10101;52.204;9.910;2023-11-19T15:30:51;11.80;99.90
19878;DHT22;10101;52.204;9.910;2023-11-19T15:33:18;11.80;99.90
19878;DHT22;10101;52.204;9.910;2023-11-19T15:35:45;12.00;59.70
19878;DHT22;10101;52.204;9.910;2023-11-19T15:38:11;11.70;28.30
19878;DHT22;10101;52.204;9.910;2023-11-19T15:40:38;11.70;1.00
19878;DHT22;10101;52.204;9.910;2023-11-19T15:43:06;11.80;1.00
19878;DHT22;10101;52.204;9.910;2023-11-19T15:45:33;11.80;1.00
19878;DHT22;10101;52.204;9.910;2023-11-19T15:48:03;11.70;33.70
19878;DHT22;10101;52.204;9.910;2023-11-19T15:50:30;11.80;92.70